createdAt,value
2018-10-18T00:01:35.923Z,14.30
2018-10-18T00:04:02.214Z,14.20
2018-10-18T00:06:28.534Z,14.20
2018-10-18T00:08:54.851Z,14.20
2018-10-18T00:11:21.885Z,14.10
2018-10-18T00:13:48.178Z,14.10
2018-10-18T00:16:14.556Z,14.10
2018-10-18T00:18:40.877Z,14.10
2018-10-18T00:21:07.190Z,14.20
2018-10-18T00:23:33.496Z,14.00
2018-10-18T00:25:59.941Z,14.10
2018-10-18T00:28:26.219Z,14.10
2018-10-18T00:30:52.523Z,14.10
2018-10-18T00:33:18.842Z,14.10
2018-10-18T00:35:45.118Z,14.00
2018-10-18T00:38:11.452Z,14.00
2018-10-18T00:40:37.738Z,14.00
2018-10-18T00:43:04.022Z,14.00
2018-10-18T00:45:30.288Z,14.20
2018-10-18T00:47:56.730Z,14.20
2018-10-18T00:50:23.025Z,14.20
2018-10-18T00:52:49.406Z,14.20
2018-10-18T00:55:15.724Z,14.30
2018-10-18T00:57:42.008Z,14.30
2018-10-18T01:00:08.477Z,14.20
2018-10-18T01:02:34.693Z,14.20
2018-10-18T01:05:01.006Z,14.10
2018-10-18T01:07:28.022Z,14.10
2018-10-18T01:09:54.341Z,14.10
2018-10-18T01:12:20.847Z,14.00
2018-10-18T01:14:46.966Z,13.90
2018-10-18T01:17:13.281Z,13.90
2018-10-18T01:19:39.615Z,13.90
2018-10-18T01:22:05.971Z,13.90
2018-10-18T01:24:32.419Z,14.00
2018-10-18T01:26:58.992Z,14.00
2018-10-18T01:29:25.289Z,14.20
2018-10-18T01:31:51.576Z,14.20
2018-10-18T01:34:18.618Z,14.30
2018-10-18T01:36:45.681Z,14.30
2018-10-18T01:39:12.718Z,14.30
2018-10-18T01:41:39.046Z,14.30
2018-10-18T01:44:05.337Z,14.30
2018-10-18T01:46:31.621Z,14.20
2018-10-18T01:48:57.930Z,14.20
2018-10-18T01:51:24.288Z,14.10
2018-10-18T01:53:50.590Z,14.10
2018-10-18T01:56:16.963Z,14.00
2018-10-18T01:58:43.193Z,14.00
2018-10-18T02:01:09.472Z,13.90
2018-10-18T02:03:35.798Z,13.90
2018-10-18T02:06:02.155Z,13.90
2018-10-18T02:08:28.432Z,13.90
2018-10-18T02:10:54.763Z,13.90
2018-10-18T02:13:21.095Z,13.90
2018-10-18T02:15:47.388Z,14.00
2018-10-18T02:18:13.813Z,13.90
2018-10-18T02:20:40.026Z,13.90
2018-10-18T02:23:06.313Z,13.90
2018-10-18T02:25:32.710Z,13.90
2018-10-18T02:27:59.837Z,14.00
2018-10-18T02:30:26.118Z,13.90
2018-10-18T02:32:52.417Z,13.90
2018-10-18T02:35:18.781Z,13.90
2018-10-18T02:37:45.837Z,13.90
2018-10-18T02:40:12.193Z,13.90
2018-10-18T02:42:38.514Z,13.90
2018-10-18T02:45:04.851Z,13.80
2018-10-18T02:47:31.136Z,13.80
2018-10-18T02:49:57.470Z,13.70
2018-10-18T02:52:24.493Z,13.60
2018-10-18T02:54:50.852Z,13.60
2018-10-18T02:57:17.185Z,13.60
2018-10-18T02:59:44.220Z,13.60
2018-10-18T03:02:10.522Z,13.60
2018-10-18T03:04:36.904Z,13.60
2018-10-18T03:07:03.935Z,13.70
2018-10-18T03:09:30.256Z,13.70
2018-10-18T03:11:56.707Z,13.70
2018-10-18T03:14:22.984Z,13.80
2018-10-18T03:16:49.287Z,13.80
2018-10-18T03:19:15.609Z,13.80
2018-10-18T03:21:41.904Z,13.80
2018-10-18T03:24:08.223Z,13.70
2018-10-18T03:26:35.221Z,13.80
2018-10-18T03:29:02.526Z,13.80
2018-10-18T03:31:29.185Z,13.80
2018-10-18T03:33:55.475Z,13.80
2018-10-18T03:36:21.794Z,13.70
2018-10-18T03:38:48.159Z,13.80
2018-10-18T03:41:14.535Z,13.80
2018-10-18T03:43:40.824Z,13.70
2018-10-18T03:46:07.396Z,13.80
2018-10-18T03:48:33.727Z,13.80
2018-10-18T03:51:00.030Z,13.80
2018-10-18T03:53:26.322Z,13.80
2018-10-18T03:55:52.641Z,13.80
2018-10-18T03:58:19.663Z,13.90
2018-10-18T04:00:46.030Z,13.90
2018-10-18T04:03:12.330Z,13.90
2018-10-18T04:05:39.402Z,14.00
2018-10-18T04:08:05.758Z,14.00
2018-10-18T04:10:32.064Z,14.00
2018-10-18T04:12:58.440Z,14.00
2018-10-18T04:15:24.692Z,14.00
2018-10-18T04:17:51.051Z,14.00
2018-10-18T04:20:18.215Z,14.00
2018-10-18T04:22:45.375Z,14.00
2018-10-18T04:25:12.393Z,14.00
2018-10-18T04:27:39.594Z,14.00
2018-10-18T04:30:06.267Z,14.00
2018-10-18T04:32:33.358Z,14.10
2018-10-18T04:34:59.921Z,14.10
2018-10-18T04:37:26.226Z,14.10
2018-10-18T04:39:53.264Z,14.20
2018-10-18T04:42:19.818Z,14.20
2018-10-18T04:44:46.189Z,14.20
2018-10-18T04:47:13.875Z,14.20
2018-10-18T04:49:40.215Z,14.20
2018-10-18T04:52:06.494Z,14.30
2018-10-18T04:54:32.815Z,14.20
2018-10-18T04:57:00.069Z,14.30
2018-10-18T04:59:26.236Z,14.30
2018-10-18T05:01:52.707Z,14.30
2018-10-18T05:04:19.350Z,14.30
2018-10-18T05:06:45.620Z,14.30
2018-10-18T05:09:11.947Z,14.20
2018-10-18T05:11:38.242Z,14.30
2018-10-18T05:14:04.574Z,14.30
2018-10-18T05:16:30.870Z,14.20
2018-10-18T05:19:08.011Z,14.20
2018-10-18T05:21:34.289Z,14.10
2018-10-18T05:24:00.621Z,14.10
2018-10-18T05:26:27.121Z,14.10
2018-10-18T05:28:53.452Z,14.10
2018-10-18T05:31:19.890Z,14.00
2018-10-18T05:33:46.171Z,14.00
2018-10-18T05:36:12.482Z,14.00
2018-10-18T05:38:38.755Z,14.00
2018-10-18T05:41:05.175Z,14.00
2018-10-18T05:43:31.515Z,14.00
2018-10-18T05:45:57.837Z,14.00
2018-10-18T05:48:24.132Z,14.00
2018-10-18T05:50:50.430Z,14.00
2018-10-18T05:53:17.623Z,14.10
2018-10-18T05:55:43.876Z,14.10
2018-10-18T05:58:10.251Z,14.00
2018-10-18T06:00:36.720Z,14.00
2018-10-18T06:03:03.051Z,13.90
2018-10-18T06:05:29.347Z,13.90
2018-10-18T06:07:55.677Z,13.90
2018-10-18T06:23:59.577Z,13.80
2018-10-18T06:26:26.610Z,13.90
2018-10-18T06:28:52.950Z,13.90
2018-10-18T06:31:19.279Z,13.90
2018-10-18T06:33:45.605Z,13.80
2018-10-18T06:36:11.898Z,13.90
2018-10-18T06:38:38.176Z,13.90
2018-10-18T06:41:04.531Z,13.90
2018-10-18T06:43:31.630Z,13.90
2018-10-18T06:45:57.914Z,13.80
2018-10-18T06:48:24.205Z,13.80
2018-10-18T06:50:50.532Z,13.90
2018-10-18T06:53:16.823Z,13.90
2018-10-18T06:55:43.153Z,13.90
2018-10-18T06:58:09.430Z,14.00
2018-10-18T07:00:35.737Z,14.00
2018-10-18T07:03:02.057Z,14.10
2018-10-18T07:05:28.345Z,14.10
2018-10-18T07:07:54.697Z,14.10
2018-10-18T07:10:21.111Z,14.20
2018-10-18T07:12:48.131Z,14.30
2018-10-18T07:15:15.241Z,14.30
2018-10-18T07:17:43.006Z,14.30
2018-10-18T07:20:09.443Z,14.40
2018-10-18T07:22:35.747Z,14.50
2018-10-18T07:25:04.552Z,14.60
2018-10-18T07:27:30.946Z,14.50
2018-10-18T07:29:57.300Z,14.90
2018-10-18T07:32:23.589Z,15.10
2018-10-18T07:34:49.896Z,15.40
2018-10-18T07:37:16.189Z,15.50
2018-10-18T07:39:43.197Z,16.20
2018-10-18T07:42:09.582Z,16.20
2018-10-18T07:44:35.800Z,16.30
2018-10-18T07:47:02.206Z,16.60
2018-10-18T07:49:28.457Z,16.90
2018-10-18T07:51:54.757Z,17.10
2018-10-18T07:54:21.058Z,17.50
2018-10-18T07:56:47.329Z,17.90
2018-10-18T07:59:14.615Z,18.00
2018-10-18T08:01:41.639Z,17.80
2018-10-18T08:04:07.928Z,17.80
2018-10-18T08:06:34.205Z,18.00
2018-10-18T08:09:00.474Z,18.20
2018-10-18T08:11:26.771Z,18.20
2018-10-18T08:13:53.058Z,18.30
2018-10-18T08:16:19.531Z,18.80
2018-10-18T08:18:45.861Z,19.00
2018-10-18T08:21:12.400Z,19.10
2018-10-18T08:23:38.940Z,19.20
2018-10-18T08:26:05.906Z,19.30
2018-10-18T08:28:32.908Z,19.50
2018-10-18T08:30:59.223Z,19.50
2018-10-18T08:33:29.407Z,19.50
2018-10-18T08:35:57.469Z,19.90
2018-10-18T08:38:25.595Z,19.90
2018-10-18T08:40:52.088Z,20.10
2018-10-18T08:43:19.030Z,20.20
2018-10-18T08:45:45.481Z,20.70
2018-10-18T08:48:13.166Z,20.70
2018-10-18T08:50:40.578Z,20.90
2018-10-18T08:53:07.726Z,20.60
2018-10-18T08:55:34.923Z,20.70
2018-10-18T08:58:01.955Z,21.20
2018-10-18T09:00:29.094Z,21.20
2018-10-18T09:02:55.496Z,21.20
2018-10-18T09:05:22.814Z,21.30
2018-10-18T09:07:49.137Z,21.60
2018-10-18T09:10:16.038Z,21.60
2018-10-18T09:12:42.793Z,21.90
2018-10-18T09:15:10.709Z,21.90
2018-10-18T09:17:37.101Z,21.90
2018-10-18T09:20:03.409Z,21.60
2018-10-18T09:22:29.750Z,21.60
2018-10-18T09:24:56.116Z,21.80
2018-10-18T09:27:22.386Z,21.60
2018-10-18T09:29:48.727Z,21.60
2018-10-18T09:32:15.038Z,21.80
2018-10-18T09:34:42.304Z,21.60
2018-10-18T09:37:09.444Z,21.00
2018-10-18T09:39:35.684Z,21.00
2018-10-18T09:42:02.219Z,21.60
2018-10-18T09:44:28.869Z,21.40
2018-10-18T09:46:55.189Z,21.70
2018-10-18T09:49:21.873Z,21.30
2018-10-18T09:51:48.163Z,21.10
2018-10-18T09:54:14.441Z,21.40
2018-10-18T09:56:40.813Z,21.60
2018-10-18T09:59:07.149Z,21.70
2018-10-18T10:01:40.414Z,21.40
2018-10-18T10:04:06.865Z,21.40
2018-10-18T10:06:33.342Z,21.70
2018-10-18T10:08:59.731Z,21.90
2018-10-18T10:11:26.315Z,22.00
2018-10-18T10:13:53.602Z,21.80
2018-10-18T10:16:20.882Z,22.10
2018-10-18T10:18:49.017Z,22.00
2018-10-18T10:21:17.562Z,21.50
2018-10-18T10:23:44.725Z,21.70
2018-10-18T10:26:12.465Z,21.70
2018-10-18T10:28:38.892Z,21.10
2018-10-18T10:31:05.443Z,21.50
2018-10-18T10:33:31.913Z,21.60
2018-10-18T10:35:58.454Z,21.50
2018-10-18T10:38:24.806Z,22.00
2018-10-18T10:40:51.215Z,21.90
2018-10-18T10:43:17.698Z,22.10
2018-10-18T10:45:44.177Z,22.40
2018-10-18T10:48:11.268Z,22.40
2018-10-18T10:50:37.707Z,22.40
2018-10-18T10:53:04.092Z,22.90
2018-10-18T10:55:30.518Z,23.00
2018-10-18T10:57:56.964Z,23.10
2018-10-18T11:00:23.399Z,22.90
2018-10-18T11:02:49.765Z,23.10
2018-10-18T11:05:16.141Z,23.00
2018-10-18T11:07:44.945Z,22.70
2018-10-18T11:10:11.559Z,22.80
2018-10-18T11:12:37.885Z,23.00
2018-10-18T11:15:05.082Z,23.30
2018-10-18T11:17:31.404Z,23.30
2018-10-18T11:19:57.886Z,23.10
2018-10-18T11:22:24.631Z,22.80
2018-10-18T11:24:52.143Z,22.80
2018-10-18T11:27:19.501Z,23.00
2018-10-18T11:29:45.790Z,23.00
2018-10-18T11:32:12.884Z,23.00
2018-10-18T11:34:39.440Z,22.90
2018-10-18T11:37:05.918Z,22.90
2018-10-18T11:39:33.063Z,23.20
2018-10-18T11:42:00.185Z,22.90
2018-10-18T11:44:26.585Z,22.90
2018-10-18T11:46:53.379Z,23.20
2018-10-18T11:49:20.209Z,22.80
2018-10-18T11:51:47.145Z,23.10
2018-10-18T11:54:13.815Z,23.10
2018-10-18T11:56:40.433Z,22.90
2018-10-18T11:59:06.840Z,23.00
2018-10-18T12:01:33.258Z,22.90
2018-10-18T12:03:59.547Z,22.90
2018-10-18T12:06:26.779Z,22.80
2018-10-18T12:08:53.057Z,22.80
2018-10-18T12:11:20.155Z,23.00
2018-10-18T12:13:47.607Z,23.20
2018-10-18T12:16:14.055Z,23.20
2018-10-18T12:18:40.378Z,23.10
2018-10-18T12:21:06.664Z,22.90
2018-10-18T12:23:33.139Z,23.00
2018-10-18T12:25:59.410Z,22.80
2018-10-18T12:28:26.330Z,22.80
2018-10-18T12:30:52.649Z,22.80
2018-10-18T12:33:19.367Z,22.80
2018-10-18T12:35:45.722Z,22.90
2018-10-18T12:38:13.422Z,22.90
2018-10-18T12:40:39.990Z,22.90
2018-10-18T12:43:07.406Z,23.10
2018-10-18T12:45:34.177Z,23.10
2018-10-18T12:48:01.130Z,22.80
2018-10-18T12:50:29.169Z,22.40
2018-10-18T12:52:57.453Z,22.30
2018-10-18T12:55:25.723Z,22.50
2018-10-18T12:57:53.809Z,22.50
2018-10-18T13:00:20.817Z,22.30
2018-10-18T13:02:48.072Z,22.00
2018-10-18T13:05:14.397Z,22.00
2018-10-18T13:07:41.221Z,22.20
2018-10-18T13:10:07.658Z,22.30
2018-10-18T13:12:34.180Z,22.40
2018-10-18T13:15:01.329Z,22.20
2018-10-18T13:17:27.836Z,22.30
2018-10-18T13:19:54.526Z,22.30
2018-10-18T13:22:20.863Z,22.30
2018-10-18T13:24:47.131Z,22.30
2018-10-18T13:27:14.355Z,21.80
2018-10-18T13:29:40.738Z,21.80
2018-10-18T13:32:07.920Z,21.60
2018-10-18T13:34:34.213Z,21.60
2018-10-18T13:37:01.287Z,21.40
2018-10-18T13:39:27.589Z,21.40
2018-10-18T13:41:53.939Z,21.10
2018-10-18T13:44:20.249Z,21.20
2018-10-18T13:46:47.310Z,21.10
2018-10-18T13:49:14.504Z,21.00
2018-10-18T13:51:40.853Z,21.00
2018-10-18T13:54:07.251Z,21.10
2018-10-18T13:56:34.342Z,20.90
2018-10-18T13:59:01.628Z,20.80
2018-10-18T14:01:27.963Z,20.80
2018-10-18T14:03:55.106Z,20.70
2018-10-18T14:06:21.432Z,20.70
2018-10-18T14:08:47.811Z,20.80
2018-10-18T14:11:14.902Z,20.80
2018-10-18T14:13:42.937Z,20.90
2018-10-18T14:16:09.695Z,20.80
2018-10-18T14:18:36.620Z,20.90
2018-10-18T14:21:03.023Z,21.00
2018-10-18T14:23:36.010Z,20.90
2018-10-18T14:26:06.783Z,20.80
2018-10-18T14:31:12.860Z,20.60
2018-10-18T14:33:39.643Z,20.60
2018-10-18T14:36:06.830Z,20.70
2018-10-18T14:38:37.569Z,20.80
2018-10-18T14:41:04.830Z,20.70
2018-10-18T14:43:36.866Z,20.60
2018-10-18T14:46:06.331Z,20.50
2018-10-18T14:48:33.528Z,20.50
2018-10-18T14:51:03.937Z,20.50
2018-10-18T14:53:30.304Z,20.40
2018-10-18T14:55:57.427Z,20.40
2018-10-18T14:58:25.190Z,20.20
2018-10-18T15:00:52.264Z,20.30
2018-10-18T15:03:19.262Z,20.30
2018-10-18T15:05:45.967Z,20.20
2018-10-18T15:08:14.004Z,20.30
2018-10-18T15:10:41.875Z,20.30
2018-10-18T15:13:10.728Z,20.10
2018-10-18T15:15:37.451Z,20.20
2018-10-18T15:18:10.767Z,20.00
2018-10-18T15:20:37.916Z,19.80
2018-10-18T15:23:06.569Z,19.80
2018-10-18T15:25:35.308Z,19.70
2018-10-18T15:28:05.132Z,19.60
2018-10-18T15:30:31.976Z,19.60
2018-10-18T15:32:58.362Z,19.60
2018-10-18T15:35:27.590Z,19.80
2018-10-18T15:37:57.307Z,19.70
2018-10-18T15:40:25.863Z,19.70
2018-10-18T15:43:03.720Z,19.50
2018-10-18T15:45:30.285Z,19.40
2018-10-18T15:47:56.720Z,19.30
2018-10-18T15:50:29.685Z,19.30
2018-10-18T15:53:00.305Z,19.10
2018-10-18T15:55:29.311Z,19.20
2018-10-18T15:57:56.090Z,19.00
2018-10-18T16:00:28.649Z,18.90
2018-10-18T16:02:56.647Z,18.80
2018-10-18T16:05:25.630Z,18.80
2018-10-18T16:07:53.518Z,18.80
2018-10-18T16:10:20.288Z,18.70
2018-10-18T16:12:58.147Z,18.50
2018-10-18T16:15:28.948Z,18.50
2018-10-18T16:17:55.714Z,18.60
2018-10-18T16:20:21.948Z,18.40
2018-10-18T16:22:48.362Z,18.40
2018-10-18T16:25:15.444Z,18.50
2018-10-18T16:27:44.536Z,18.30
2018-10-18T16:30:13.705Z,18.30
2018-10-18T16:32:44.956Z,18.30
2018-10-18T16:35:21.123Z,18.20
2018-10-18T16:37:53.257Z,18.20
2018-10-18T16:40:22.252Z,18.10
2018-10-18T16:45:29.266Z,18.00
2018-10-18T16:48:11.739Z,18.00
2018-10-18T16:53:20.440Z,17.80
2018-10-18T16:55:50.961Z,17.80
2018-10-18T16:58:18.932Z,17.80
2018-10-18T17:00:47.578Z,17.80
2018-10-18T17:03:17.796Z,17.80
2018-10-18T17:05:47.793Z,17.70
2018-10-18T17:08:16.309Z,17.60
2018-10-18T17:10:43.624Z,17.60
2018-10-18T17:13:11.442Z,17.60
2018-10-18T17:15:39.386Z,17.50
2018-10-18T17:18:08.020Z,17.50
2018-10-18T17:20:36.458Z,17.30
2018-10-18T17:23:03.319Z,17.40
2018-10-18T17:25:33.506Z,17.30
2018-10-18T17:28:03.395Z,17.30
2018-10-18T17:30:35.282Z,17.20
2018-10-18T17:33:05.365Z,17.30
2018-10-18T17:35:41.689Z,17.10
2018-10-18T17:38:14.839Z,17.20
2018-10-18T17:40:43.868Z,17.00
2018-10-18T17:43:13.690Z,17.00
2018-10-18T17:45:42.150Z,17.00
2018-10-18T17:48:15.532Z,17.00
2018-10-18T17:50:46.113Z,16.90
2018-10-18T17:53:13.770Z,16.90
2018-10-18T17:58:27.786Z,16.70
2018-10-18T18:01:01.277Z,16.70
2018-10-18T18:03:34.291Z,16.60
2018-10-18T18:08:38.723Z,16.70
2018-10-18T18:11:08.366Z,16.60
2018-10-18T18:13:37.137Z,16.60
2018-10-18T18:18:43.230Z,16.50
2018-10-18T18:21:13.177Z,16.50
2018-10-18T18:26:32.333Z,16.40
2018-10-18T18:28:54.709Z,16.30
2018-10-18T18:31:31.261Z,16.40
2018-10-18T18:33:58.607Z,16.30
2018-10-18T18:36:24.982Z,16.10
2018-10-18T18:38:51.411Z,16.10
2018-10-18T18:41:19.572Z,16.10
2018-10-18T18:43:48.764Z,16.00
2018-10-18T18:46:15.123Z,16.00
2018-10-18T18:48:45.277Z,16.10
2018-10-18T18:51:11.874Z,16.00
2018-10-18T18:53:40.618Z,15.90
2018-10-18T18:56:08.668Z,15.90
2018-10-18T18:58:36.197Z,15.80
2018-10-18T19:01:06.148Z,15.90
2018-10-18T19:03:37.285Z,15.80
2018-10-18T19:06:08.940Z,15.80
2018-10-18T19:08:38.645Z,15.80
2018-10-18T19:11:05.066Z,15.80
2018-10-18T19:13:31.605Z,15.70
2018-10-18T19:15:58.849Z,15.70
2018-10-18T19:18:26.686Z,15.70
2018-10-18T19:20:52.990Z,15.70
2018-10-18T19:23:22.710Z,15.70
2018-10-18T19:25:54.451Z,15.70
2018-10-18T19:28:43.841Z,15.60
2018-10-18T19:31:13.848Z,15.70
2018-10-18T19:33:40.869Z,15.70
2018-10-18T19:36:09.635Z,15.70
2018-10-18T19:38:42.995Z,15.70
2018-10-18T19:41:18.952Z,15.60
2018-10-18T19:43:56.075Z,15.60
2018-10-18T19:46:25.129Z,15.70
2018-10-18T19:48:54.334Z,15.60
2018-10-18T19:51:20.908Z,15.60
2018-10-18T19:53:48.371Z,15.60
2018-10-18T19:56:14.869Z,15.60
2018-10-18T19:58:41.196Z,15.50
2018-10-18T20:01:07.543Z,15.60
2018-10-18T20:03:33.848Z,15.50
2018-10-18T20:06:00.674Z,15.50
2018-10-18T20:08:27.706Z,15.50
2018-10-18T20:10:54.066Z,15.50
2018-10-18T20:13:20.430Z,15.50
2018-10-18T20:15:46.766Z,15.30
2018-10-18T20:18:15.983Z,15.30
2018-10-18T20:20:43.017Z,15.30
2018-10-18T20:23:09.313Z,15.20
2018-10-18T20:25:35.645Z,15.20
2018-10-18T20:28:01.974Z,15.20
2018-10-18T20:30:28.291Z,15.20
2018-10-18T20:32:54.609Z,15.20
2018-10-18T20:35:20.982Z,15.20
2018-10-18T20:37:47.588Z,15.10
2018-10-18T20:40:13.901Z,15.10
2018-10-18T20:42:40.539Z,15.10
2018-10-18T20:45:06.880Z,15.10
2018-10-18T20:47:33.344Z,15.10
2018-10-18T20:49:59.530Z,15.10
2018-10-18T20:52:25.912Z,14.90
2018-10-18T20:54:52.202Z,14.90
2018-10-18T20:57:18.531Z,14.80
2018-10-18T20:59:45.285Z,14.80
2018-10-18T21:02:11.663Z,14.70
2018-10-18T21:04:37.966Z,14.70
2018-10-18T21:07:04.599Z,14.70
2018-10-18T21:09:30.932Z,14.60
2018-10-18T21:11:57.515Z,14.60
2018-10-18T21:14:24.226Z,14.60
2018-10-18T21:16:50.548Z,14.50
2018-10-18T21:19:17.091Z,14.50
2018-10-18T21:21:43.527Z,14.50
2018-10-18T21:24:09.837Z,14.40
2018-10-18T21:26:36.129Z,14.40
2018-10-18T21:29:02.489Z,14.40
2018-10-18T21:31:28.847Z,14.30
2018-10-18T21:33:55.122Z,14.30
2018-10-18T21:36:22.505Z,14.30
2018-10-18T21:38:48.860Z,14.20
2018-10-18T21:41:15.546Z,14.30
2018-10-18T21:43:42.642Z,14.20
2018-10-18T21:46:08.941Z,14.20
2018-10-18T21:48:36.216Z,14.20
2018-10-18T21:51:02.563Z,14.20
2018-10-18T21:53:29.333Z,14.30
2018-10-18T21:55:56.373Z,14.20
2018-10-18T21:58:22.663Z,14.20
2018-10-18T22:00:48.961Z,14.20
2018-10-18T22:03:15.322Z,14.20
2018-10-18T22:05:41.630Z,14.20
2018-10-18T22:08:08.001Z,14.20
2018-10-18T22:10:34.746Z,14.20
2018-10-18T22:13:01.101Z,14.20
2018-10-18T22:15:28.516Z,14.20
2018-10-18T22:17:54.857Z,14.20
2018-10-18T22:20:21.163Z,14.20
2018-10-18T22:22:47.779Z,14.20
2018-10-18T22:25:14.107Z,14.20
2018-10-18T22:27:40.594Z,14.20
2018-10-18T22:30:06.930Z,14.10
2018-10-18T22:32:33.356Z,14.10
2018-10-18T22:34:59.737Z,14.10
2018-10-18T22:37:26.100Z,14.10
2018-10-18T22:39:53.169Z,14.00
2018-10-18T22:42:20.015Z,14.00
2018-10-18T22:44:46.326Z,14.00
2018-10-18T22:47:12.655Z,14.10
2018-10-18T22:49:38.934Z,14.00
2018-10-18T22:52:05.226Z,13.90
2018-10-18T22:54:32.253Z,13.90
2018-10-18T22:56:58.521Z,13.90
2018-10-18T22:59:24.838Z,13.80
2018-10-18T23:01:51.879Z,13.80
2018-10-18T23:04:18.970Z,13.80
2018-10-18T23:06:45.232Z,13.80
2018-10-18T23:09:11.637Z,13.80
2018-10-18T23:11:37.848Z,13.80
2018-10-18T23:14:04.159Z,13.80
2018-10-18T23:16:30.493Z,13.80
2018-10-18T23:18:56.797Z,13.90
2018-10-18T23:21:23.128Z,13.90
2018-10-18T23:23:49.401Z,13.90
2018-10-18T23:26:15.768Z,13.80
2018-10-18T23:28:42.115Z,13.80
2018-10-18T23:31:08.398Z,13.70
2018-10-18T23:33:34.689Z,13.70
2018-10-18T23:36:01.013Z,13.60
2018-10-18T23:38:27.341Z,13.60
2018-10-18T23:40:53.690Z,13.50
2018-10-18T23:43:19.959Z,13.40
2018-10-18T23:45:46.294Z,13.40
2018-10-18T23:48:12.567Z,13.40
2018-10-18T23:50:38.910Z,13.30
2018-10-18T23:53:05.251Z,13.30
2018-10-18T23:55:31.510Z,13.20
2018-10-18T23:57:57.815Z,13.10
